Flinterduin — PEBT — position and weather

sailwx.info

Track history (hours):
 
Tides and Currents Weather Stations Pressure Air Temp Water Temp Dewpoint Dewpoint Depression Visibility Wind Speed Wind Dir Waves Ship Positions

Flinterduin

Last reported at 2015-Feb-23 15:00 UTC. Time now 2015-Feb-28 13:58 UTC.
Position N 69°42' E 034°42'.

Length 112 m; beam 15 m.

Type: Cargo ship. MMSI: 246484000.

Wind from 320 at 30 knots

Barometer 992.5 mb
Visibility: greater than 5.4 NM

Date/timePositionNaut miles runAvg speedWind from/ knotsBaromVisibWave heightAir tempDewpointWater temp
2015-Feb-23 15:00N 69°42' E 034°42'24210.1 320 / 30992.5 5.4
2015-Feb-22 15:00N 71°06' E 023°24'   030 / 30978.6 5.4 4.0 4.0
2015-Feb-19 15:00N 60°12' E 004°06'235 9.8 250 / 251002.6 5.4 1.0 7.0 4.9
2015-Feb-18 15:00N 56°18' E 004°42'12623.1 250 / 251028.7 5.4 2.0 5.0 2.8
2015-Feb-18 09:33N 54°12' E 004°54'1312.7
2015-Feb-18 08:33N 53°60' E 004°55'1313.0
2015-Feb-18 07:33N 53°47' E 004°54'1313.3
2015-Feb-18 06:33N 53°34' E 004°48'1413.7
2015-Feb-18 05:33N 53°21' E 004°40'1514.7
2015-Feb-18 04:33N 53°08' E 004°29'3014.5
2015-Feb-18 02:29N 52°42' E 004°03'1714.4
2015-Feb-18 01:17N 52°30' E 003°43'1014.3
2015-Feb-18 00:33N 52°20' E 003°36'1414.1
2015-Feb-17 23:33N 52°07' E 003°26'1312.8
2015-Feb-17 22:33N 51°55' E 003°22'1211.1
2015-Feb-17 21:28N 51°43' E 003°16'1111.6
2015-Feb-17 20:33N 51°34' E 003°24'1010.1
2015-Feb-17 19:33N 51°26' E 003°34'12 6.0
2015-Feb-17 17:34N 51°19' E 003°50'6 6.4
2015-Feb-17 16:34N 51°13' E 003°48'7 7.2
2015-Feb-17 15:33N 51°06' E 003°45'0 0.3
2015-Feb-17 14:33N 51°05' E 003°45'0 0.0
2015-Feb-17 13:33N 51°05' E 003°45'0 0.0
2015-Feb-17 12:33N 51°05' E 003°45'0 0.0
2015-Feb-17 11:33N 51°05' E 003°45'0 0.0
2015-Feb-17 10:33N 51°05' E 003°45'0 0.0
2015-Feb-17 09:33N 51°05' E 003°45'0 0.0
2015-Feb-17 08:33N 51°05' E 003°45'0 0.0
2015-Feb-17 07:33N 51°05' E 003°45'0 0.0
2015-Feb-17 06:33N 51°05' E 003°45'0 0.0
2015-Feb-17 05:33N 51°05' E 003°45'0 0.0
2015-Feb-17 04:33N 51°05' E 003°45'0 0.0
2015-Feb-17 03:33N 51°05' E 003°45'0 0.0
2015-Feb-17 02:33N 51°05' E 003°45'0 0.0
2015-Feb-17 01:33N 51°05' E 003°45'0 0.0
2015-Feb-17 00:27N 51°05' E 003°45'0 0.0
2015-Feb-16 23:32N 51°05' E 003°45'0 0.0
2015-Feb-16 22:32N 51°05' E 003°45'0 0.0
2015-Feb-16 21:26N 51°05' E 003°45'0 0.0
2015-Feb-16 20:33N 51°05' E 003°45'0 0.0
2015-Feb-16 19:32N 51°05' E 003°45'0 0.0
2015-Feb-16 18:32N 51°05' E 003°45'0 0.0
2015-Feb-16 17:32N 51°05' E 003°45'0 0.0
2015-Feb-16 16:32N 51°05' E 003°45'0 0.0
2015-Feb-16 15:32N 51°05' E 003°45'0 0.0
2015-Feb-16 14:32N 51°05' E 003°45'0 0.0
2015-Feb-16 13:32N 51°05' E 003°45'0 0.0
2015-Feb-16 12:29N 51°05' E 003°45'0 0.0
2015-Feb-16 11:32N 51°05' E 003°45'0 0.1
2015-Feb-16 10:32N 51°06' E 003°45'0 0.0
2015-Feb-16 09:32N 51°06' E 003°45'0 0.0
2015-Feb-16 08:32N 51°06' E 003°45'0 0.0
2015-Feb-16 07:32N 51°06' E 003°45'0 0.0
2015-Feb-16 06:32N 51°06' E 003°45'0 0.0
2015-Feb-16 05:32N 51°06' E 003°45'0 0.0
2015-Feb-16 04:32N 51°06' E 003°45'0 0.0
2015-Feb-16 03:32N 51°06' E 003°45'0 0.0
2015-Feb-16 02:32N 51°06' E 003°45'0 0.0
2015-Feb-16 01:32N 51°06' E 003°45'0 0.0
2015-Feb-16 00:32N 51°06' E 003°45'0 0.0
2015-Feb-15 23:32N 51°06' E 003°45'0 0.0
2015-Feb-15 22:32N 51°06' E 003°45'0 0.0
2015-Feb-15 21:26N 51°06' E 003°45'0 0.0
2015-Feb-15 20:32N 51°06' E 003°45'0 0.0
2015-Feb-15 19:32N 51°06' E 003°45'0 0.0
2015-Feb-15 18:32N 51°06' E 003°45'0 0.0
2015-Feb-15 17:32N 51°06' E 003°45'0 0.0
2015-Feb-15 16:32N 51°06' E 003°45'0 0.0
2015-Feb-15 15:32N 51°06' E 003°45'0 0.0
2015-Feb-15 14:32N 51°06' E 003°45'0 0.0
2015-Feb-15 13:32N 51°06' E 003°45'1 0.8
2015-Feb-15 12:33N 51°06' E 003°45'8 7.8
2015-Feb-15 11:34N 51°14' E 003°48'7 6.5
2015-Feb-15 10:33N 51°20' E 003°49'7 7.5
2015-Feb-15 09:33N 51°25' E 003°40'1312.8
2015-Feb-15 08:33N 51°24' E 003°19'1313.2
2015-Feb-15 07:34N 51°23' E 002°58'1211.4
2015-Feb-15 06:33N 51°22' E 002°40'1010.1
2015-Feb-15 05:34N 51°20' E 002°24'1110.5
2015-Feb-15 04:34N 51°15' E 002°09'1010.4
2015-Feb-15 03:33N 51°10' E 001°55'1010.2
2015-Feb-15 02:34N 51°03' E 001°43'1010.2
2015-Feb-15 01:33N 50°56' E 001°31'105 9.9
2015-Feb-14 15:00N 50°06' W 000°54'25410.6 050 / 151002.3 5.4 1.5
2015-Feb-13 15:00N 47°48' W 006°18'   270 / 61004.4 5.4 3.010.010.0
Track history (hours):
 
Tides and Currents Weather Stations Pressure Air Temp Water Temp Dewpoint Dewpoint Depression Visibility Wind Speed Wind Dir Waves Ship Positions

Flinterduin

Last reported at 2015-Feb-23 15:00 UTC. Time now 2015-Feb-28 13:58 UTC.
Position N 69°42' E 034°42'.

Length 112 m; beam 15 m.

Type: Cargo ship. MMSI: 246484000.

Wind from 320 at 30 knots

Barometer 992.5 mb
Visibility: greater than 5.4 NM

Date/timePositionNaut miles runAvg speedWind from/ knotsBaromVisibWave heightAir tempDewpointWater temp
2015-Feb-23 15:00N 69°42' E 034°42'24210.1 320 / 30992.5 5.4
2015-Feb-22 15:00N 71°06' E 023°24'   030 / 30978.6 5.4 4.0 4.0
2015-Feb-19 15:00N 60°12' E 004°06'235 9.8 250 / 251002.6 5.4 1.0 7.0 4.9
2015-Feb-18 15:00N 56°18' E 004°42'12623.1 250 / 251028.7 5.4 2.0 5.0 2.8
2015-Feb-18 09:33N 54°12' E 004°54'1312.7
2015-Feb-18 08:33N 53°60' E 004°55'1313.0
2015-Feb-18 07:33N 53°47' E 004°54'1313.3
2015-Feb-18 06:33N 53°34' E 004°48'1413.7
2015-Feb-18 05:33N 53°21' E 004°40'1514.7
2015-Feb-18 04:33N 53°08' E 004°29'3014.5
2015-Feb-18 02:29N 52°42' E 004°03'1714.4
2015-Feb-18 01:17N 52°30' E 003°43'1014.3
2015-Feb-18 00:33N 52°20' E 003°36'1414.1
2015-Feb-17 23:33N 52°07' E 003°26'1312.8
2015-Feb-17 22:33N 51°55' E 003°22'1211.1
2015-Feb-17 21:28N 51°43' E 003°16'1111.6
2015-Feb-17 20:33N 51°34' E 003°24'1010.1
2015-Feb-17 19:33N 51°26' E 003°34'12 6.0
2015-Feb-17 17:34N 51°19' E 003°50'6 6.4
2015-Feb-17 16:34N 51°13' E 003°48'7 7.2
2015-Feb-17 15:33N 51°06' E 003°45'0 0.3
2015-Feb-17 14:33N 51°05' E 003°45'0 0.0
2015-Feb-17 13:33N 51°05' E 003°45'0 0.0
2015-Feb-17 12:33N 51°05' E 003°45'0 0.0
2015-Feb-17 11:33N 51°05' E 003°45'0 0.0
2015-Feb-17 10:33N 51°05' E 003°45'0 0.0
2015-Feb-17 09:33N 51°05' E 003°45'0 0.0
2015-Feb-17 08:33N 51°05' E 003°45'0 0.0
2015-Feb-17 07:33N 51°05' E 003°45'0 0.0
2015-Feb-17 06:33N 51°05' E 003°45'0 0.0
2015-Feb-17 05:33N 51°05' E 003°45'0 0.0
2015-Feb-17 04:33N 51°05' E 003°45'0 0.0
2015-Feb-17 03:33N 51°05' E 003°45'0 0.0
2015-Feb-17 02:33N 51°05' E 003°45'0 0.0
2015-Feb-17 01:33N 51°05' E 003°45'0 0.0
2015-Feb-17 00:27N 51°05' E 003°45'0 0.0
2015-Feb-16 23:32N 51°05' E 003°45'0 0.0
2015-Feb-16 22:32N 51°05' E 003°45'0 0.0
2015-Feb-16 21:26N 51°05' E 003°45'0 0.0
2015-Feb-16 20:33N 51°05' E 003°45'0 0.0
2015-Feb-16 19:32N 51°05' E 003°45'0 0.0
2015-Feb-16 18:32N 51°05' E 003°45'0 0.0
2015-Feb-16 17:32N 51°05' E 003°45'0 0.0
2015-Feb-16 16:32N 51°05' E 003°45'0 0.0
2015-Feb-16 15:32N 51°05' E 003°45'0 0.0
2015-Feb-16 14:32N 51°05' E 003°45'0 0.0
2015-Feb-16 13:32N 51°05' E 003°45'0 0.0
2015-Feb-16 12:29N 51°05' E 003°45'0 0.0
2015-Feb-16 11:32N 51°05' E 003°45'0 0.1
2015-Feb-16 10:32N 51°06' E 003°45'0 0.0
2015-Feb-16 09:32N 51°06' E 003°45'0 0.0
2015-Feb-16 08:32N 51°06' E 003°45'0 0.0
2015-Feb-16 07:32N 51°06' E 003°45'0 0.0
2015-Feb-16 06:32N 51°06' E 003°45'0 0.0
2015-Feb-16 05:32N 51°06' E 003°45'0 0.0
2015-Feb-16 04:32N 51°06' E 003°45'0 0.0
2015-Feb-16 03:32N 51°06' E 003°45'0 0.0
2015-Feb-16 02:32N 51°06' E 003°45'0 0.0
2015-Feb-16 01:32N 51°06' E 003°45'0 0.0
2015-Feb-16 00:32N 51°06' E 003°45'0 0.0
2015-Feb-15 23:32N 51°06' E 003°45'0 0.0
2015-Feb-15 22:32N 51°06' E 003°45'0 0.0
2015-Feb-15 21:26N 51°06' E 003°45'0 0.0
2015-Feb-15 20:32N 51°06' E 003°45'0 0.0
2015-Feb-15 19:32N 51°06' E 003°45'0 0.0
2015-Feb-15 18:32N 51°06' E 003°45'0 0.0
2015-Feb-15 17:32N 51°06' E 003°45'0 0.0
2015-Feb-15 16:32N 51°06' E 003°45'0 0.0
2015-Feb-15 15:32N 51°06' E 003°45'0 0.0
2015-Feb-15 14:32N 51°06' E 003°45'0 0.0
2015-Feb-15 13:32N 51°06' E 003°45'1 0.8
2015-Feb-15 12:33N 51°06' E 003°45'8 7.8
2015-Feb-15 11:34N 51°14' E 003°48'7 6.5
2015-Feb-15 10:33N 51°20' E 003°49'7 7.5
2015-Feb-15 09:33N 51°25' E 003°40'1312.8
2015-Feb-15 08:33N 51°24' E 003°19'1313.2
2015-Feb-15 07:34N 51°23' E 002°58'1211.4
2015-Feb-15 06:33N 51°22' E 002°40'1010.1
2015-Feb-15 05:34N 51°20' E 002°24'1110.5
2015-Feb-15 04:34N 51°15' E 002°09'1010.4
2015-Feb-15 03:33N 51°10' E 001°55'1010.2
2015-Feb-15 02:34N 51°03' E 001°43'1010.2
2015-Feb-15 01:33N 50°56' E 001°31'105 9.9
2015-Feb-14 15:00N 50°06' W 000°54'25410.6 050 / 151002.3 5.4 1.5
2015-Feb-13 15:00N 47°48' W 006°18'   270 / 61004.4 5.4 3.010.010.0

Dump ship's entire track history